Observations for CRANWELL RAF, United Kingdom (EGYD)

EGYD 130850Z 11011KT 9999 FEW035 BKN250 03/00 Q1019 BLU NOSIG   
EGYD 130750Z 10014KT 9999 FEW035 SCT250 02/M00 Q1018 BLU NOSIG  
EGYD 130650Z 11013KT 9999 FEW035 BKN250 02/M00 Q1017 BLU NOSIG  
EGYD 130550Z AUTO 11015KT 9999 // OVC034/// 03/00 Q1017 
EGYD 130450Z AUTO 11014KT 9999 // OVC029/// 03/00 Q1018 
EGYD 130350Z AUTO 11010KT 9999 // FEW023/// OVC029/// 04/01 Q1018   
EGYD 130250Z AUTO 11014KT 9999 // SCT022/// BKN029/// 04/01 Q1018   
EGYD 130150Z AUTO 11011KT 9999 // FEW026/// BKN032/// 04/01 Q1019   
EGYD 130050Z AUTO 11014KT 9999 // OVC035/// 04/02 Q1019 
EGYD 122350Z AUTO 11013KT 9999 // FEW031/// BKN037/// 04/01 Q1019   
EGYD 122250Z AUTO 11012KT 9999 // OVC037/// 03/01 Q1019 
EGYD 122150Z AUTO 12013KT 9999 // OVC037/// 04/00 Q1019 
EGYD 122050Z AUTO 12008KT 9999 // OVC038/// 02/M00 Q1020
EGYD 121950Z AUTO 13008KT 9999 // BKN040/// 00/M01 Q1021
EGYD 121850Z AUTO 13008KT 9999 // NCD M01/M03 Q1021 
EGYD 121750Z AUTO 13010KT 9999 // NCD 01/M01 Q1021  
EGYD 121650Z 13011KT 9999 FEW032 02/M00 Q1021 BLU NOSIG 
EGYD 121550Z 13011KT 9999 FEW025 03/00 Q1021 BLU NOSIG  
EGYD 121450Z 14011KT 9999 FEW016 05/01 Q1021 BLU NOSIG  
EGYD 121350Z AUTO 15014KT 9999 // NCD 06/01 Q1022   
EGYD 121250Z 15014KT 9999 FEW045 06/02 Q1022 BLU NOSIG  
EGYD 121150Z 15014KT 9999 FEW035 06/03 Q1023 BLU NOSIG  
EGYD 121050Z 15011KT CAVOK 05/03 Q1023 BLU NOSIG
EGYD 120950Z 14009KT 9999 SCT034 SCT250 04/03 Q1023 BLU NOSIG   
EGYD 120850Z 15006KT 8000 BR BKN029 BKN250 03/02 Q1015 BLU NOSIG